Currently 70°F in San Diego (City Heights), California, USA
70°F
70°F / 69°F
calm
0.00"
Thursday, July 20, 2017 5:44 AM PDT

San Diego (City Heights), California Weather Summary
Last 36 Hours

Temperature Winds Hourly Humidity Dewpoint
Time Report Norm Report Norm Max Gusts Precip. Rpt. Norm Rpt. Norm Pressure
1Thu 05:44 AM  69.5°F  67°F  calm  calm  none  0.00"  88%  86%  66°F  62°F  N/A
Thu 05:00 AM  69.5°F  67°F  calm  1 mph  none  0.00"  87%  86%  65°F  62°F  N/A
Thu 04:00 AM  69.4°F  67°F  calm  1 mph  none  0.00"  86%  86%  65°F  62°F  N/A
Thu 03:00 AM  69.2°F  67°F  calm  calm  none  0.00"  86%  85%  65°F  62°F  N/A
3Thu 02:27 AM  68.7°F  67°F  calm  calm  none  ----  86%  85%  64°F  62°F  N/A
Thu 02:00 AM  68.8°F  67°F  calm  1 mph  none  0.00"  86%  85%  64°F  62°F  N/A
Thu 01:00 AM  69.4°F  68°F  calm  1 mph  none  0.00"  85%  84%  64°F  62°F  N/A
2Thu 12:00 AM  69.6°F  68°F  calm  calm  4 mph  0.00"  85%  83%  65°F  62°F  N/A
Wed 11:00 PM  70.2°F  68°F  2 mph S  1 mph  5 mph  0.00"  83%  82%  65°F  62°F  N/A
Wed 10:00 PM  71.0°F  69°F  2 mph SE  1 mph  5 mph  0.00"  81%  80%  65°F  62°F  N/A
Wed 09:00 PM  72.0°F  69°F  1 mph SE  1 mph  6 mph  0.00"  78%  78%  64°F  62°F  N/A
Wed 08:00 PM  73.0°F  71°F  2 mph SW  2 mph  6 mph  0.00"  76%  74%  65°F  62°F  N/A
Wed 07:00 PM  74.9°F  74°F  3 mph SW  3 mph  9 mph  0.00"  71%  67%  65°F  62°F  N/A
Wed 06:00 PM  78.1°F  76°F  3 mph SW  3 mph  10 mph  0.00"  64%  62%  64°F  62°F  N/A
Wed 05:00 PM  80.4°F  78°F  7 mph SW  4 mph  10 mph  0.00"  59%  60%  64°F  62°F  N/A
Wed 04:00 PM  82.7°F  78°F  6 mph SW  4 mph  11 mph  0.00"  54%  58%  64°F  62°F  N/A
Wed 03:00 PM  84.9°F  79°F  6 mph S  4 mph  10 mph  0.00"  44%  58%  60°F  62°F  N/A
Wed 02:00 PM  85.0°F  79°F  4 mph SW  4 mph  11 mph  0.00"  41%  58%  58°F  62°F  N/A
Wed 01:00 PM  83.9°F  79°F  4 mph SW  4 mph  10 mph  0.00"  46%  59%  60°F  63°F  N/A
Wed 12:00 PM  82.3°F  78°F  5 mph SW  4 mph  8 mph  0.00"  51%  60%  62°F  63°F  N/A
Wed 11:00 AM  79.1°F  77°F  4 mph W  3 mph  9 mph  0.00"  65%  62%  66°F  63°F  N/A
Wed 10:00 AM  80.7°F  75°F  4 mph S  2 mph  9 mph  0.00"  62%  66%  66°F  63°F  N/A
Wed 09:00 AM  74.7°F  72°F  4 mph SW  1 mph  3 mph  0.00"  75%  73%  66°F  63°F  N/A
Wed 08:00 AM  71.9°F  69°F  1 mph S  1 mph  4 mph  0.00"  81%  81%  65°F  63°F  N/A
Wed 07:00 AM  70.5°F  67°F  calm  1 mph  none  0.00"  84%  85%  65°F  63°F  N/A
Wed 06:00 AM  70.2°F  67°F  calm  calm  none  0.00"  84%  86%  65°F  62°F  N/A
Wed 05:00 AM  70.0°F  67°F  calm  1 mph  4 mph  0.00"  84%  86%  65°F  62°F  N/A
Wed 04:00 AM  70.6°F  67°F  2 mph SW  1 mph  4 mph  0.00"  83%  85%  65°F  62°F  N/A
Wed 03:00 AM  70.5°F  67°F  calm  calm  2 mph  0.00"  83%  85%  65°F  62°F  N/A
Wed 02:00 AM  70.9°F  67°F  calm  1 mph  3 mph  0.00"  82%  85%  65°F  62°F  N/A
Wed 01:00 AM  71.2°F  67°F  calm  1 mph  4 mph  0.00"  81%  84%  65°F  62°F  N/A
Wed 12:00 AM  71.5°F  68°F  calm  calm  5 mph  0.00"  80%  83%  65°F  62°F  N/A
Tue 11:00 PM  71.8°F  68°F  1 mph SW  calm  4 mph  0.00"  78%  82%  64°F  62°F  N/A
Tue 10:00 PM  71.6°F  69°F  2 mph SW  1 mph  4 mph  0.00"  78%  80%  64°F  62°F  N/A
Tue 09:00 PM  71.6°F  69°F  1 mph SW  1 mph  5 mph  0.00"  77%  79%  64°F  62°F  N/A
Tue 08:00 PM  72.6°F  71°F  3 mph W  2 mph  8 mph  0.00"  75%  74%  64°F  62°F  N/A
Tue 07:00 PM  76.0°F  74°F  4 mph SW  3 mph  8 mph  0.00"  67%  67%  64°F  62°F  N/A
Tue 06:00 PM  79.2°F  76°F  3 mph S  3 mph  10 mph  0.00"  53%  62%  60°F  62°F  N/A

  1. Current weather data. No green row appears if the current weather data is also the high or low for the current day.
  2. High temperature for the current day.
  3. Low temperature for the current day.

The San Diego (City Height), California weather pages are a service of WeatherCurrents. City Heights is a San Diego community, located east of Balboa Park, near Interstate 15
Copyright ©Thu Jul 20 05:45:13 PDT 2017  WeatherCurrents. All rights reserved. - Submit questions and comments - Privacy Policy

This page automatically refreshes every 10 minutes.